sensor_id;sensor_type;location;lat;lon;timestamp;P1;durP1;ratioP1;P2;durP2;ratioP2
16770;SDS011;8503;52.472;13.344;2022-10-31T00:01:23;25.35;;;13.80;;
16770;SDS011;8503;52.472;13.344;2022-10-31T00:02:47;28.40;;;13.38;;
16770;SDS011;8503;52.472;13.344;2022-10-31T00:04:10;22.88;;;13.13;;
16770;SDS011;8503;52.472;13.344;2022-10-31T00:05:33;23.73;;;12.70;;
16770;SDS011;8503;52.472;13.344;2022-10-31T00:06:55;33.35;;;14.40;;
16770;SDS011;8503;52.472;13.344;2022-10-31T00:08:20;28.48;;;13.10;;
16770;SDS011;8503;52.472;13.344;2022-10-31T00:09:42;25.05;;;14.27;;
16770;SDS011;8503;52.472;13.344;2022-10-31T00:11:08;26.55;;;13.18;;
16770;SDS011;8503;52.472;13.344;2022-10-31T00:12:30;24.55;;;14.05;;
16770;SDS011;8503;52.472;13.344;2022-10-31T00:13:54;28.80;;;14.50;;
16770;SDS011;8503;52.472;13.344;2022-10-31T00:15:16;23.50;;;13.68;;
16770;SDS011;8503;52.472;13.344;2022-10-31T00:16:39;31.35;;;14.02;;
16770;SDS011;8503;52.472;13.344;2022-10-31T00:18:03;24.75;;;13.77;;
16770;SDS011;8503;52.472;13.344;2022-10-31T00:19:26;30.80;;;14.18;;
16770;SDS011;8503;52.472;13.344;2022-10-31T00:20:57;18.10;;;11.73;;
16770;SDS011;8503;52.472;13.344;2022-10-31T00:22:20;25.90;;;11.82;;
16770;SDS011;8503;52.472;13.344;2022-10-31T00:23:45;27.08;;;13.65;;
16770;SDS011;8503;52.472;13.344;2022-10-31T00:25:08;22.42;;;13.20;;
16770;SDS011;8503;52.472;13.344;2022-10-31T00:26:31;26.05;;;13.63;;
16770;SDS011;8503;52.472;13.344;2022-10-31T00:27:55;23.63;;;12.60;;
16770;SDS011;8503;52.472;13.344;2022-10-31T00:29:17;23.13;;;13.13;;
16770;SDS011;8503;52.472;13.344;2022-10-31T00:30:41;26.42;;;13.00;;
16770;SDS011;8503;52.472;13.344;2022-10-31T00:32:04;31.63;;;15.18;;
16770;SDS011;8503;52.472;13.344;2022-10-31T00:33:27;21.27;;;12.68;;
16770;SDS011;8503;52.472;13.344;2022-10-31T00:34:50;21.70;;;12.05;;
16770;SDS011;8503;52.472;13.344;2022-10-31T00:36:14;22.00;;;12.05;;
16770;SDS011;8503;52.472;13.344;2022-10-31T00:37:38;25.67;;;11.68;;
16770;SDS011;8503;52.472;13.344;2022-10-31T00:39:02;21.73;;;12.65;;
16770;SDS011;8503;52.472;13.344;2022-10-31T00:40:26;19.27;;;13.20;;
16770;SDS011;8503;52.472;13.344;2022-10-31T00:41:48;23.80;;;13.02;;
16770;SDS011;8503;52.472;13.344;2022-10-31T00:43:12;17.90;;;12.10;;
16770;SDS011;8503;52.472;13.344;2022-10-31T00:44:34;21.15;;;12.43;;
16770;SDS011;8503;52.472;13.344;2022-10-31T00:45:57;20.35;;;11.50;;
16770;SDS011;8503;52.472;13.344;2022-10-31T00:47:20;26.98;;;11.38;;
16770;SDS011;8503;52.472;13.344;2022-10-31T00:48:43;22.30;;;11.80;;
16770;SDS011;8503;52.472;13.344;2022-10-31T00:50:07;21.30;;;11.05;;
16770;SDS011;8503;52.472;13.344;2022-10-31T00:51:30;19.40;;;11.57;;
16770;SDS011;8503;52.472;13.344;2022-10-31T00:52:54;22.98;;;12.27;;
16770;SDS011;8503;52.472;13.344;2022-10-31T00:54:18;21.08;;;11.60;;
16770;SDS011;8503;52.472;13.344;2022-10-31T00:55:41;21.83;;;11.30;;
16770;SDS011;8503;52.472;13.344;2022-10-31T00:57:03;20.75;;;12.95;;
16770;SDS011;8503;52.472;13.344;2022-10-31T00:58:27;28.40;;;11.60;;
16770;SDS011;8503;52.472;13.344;2022-10-31T00:59:49;22.10;;;11.80;;
16770;SDS011;8503;52.472;13.344;2022-10-31T01:01:13;23.50;;;11.07;;
16770;SDS011;8503;52.472;13.344;2022-10-31T01:02:36;18.55;;;11.10;;
16770;SDS011;8503;52.472;13.344;2022-10-31T01:03:59;19.42;;;11.30;;
16770;SDS011;8503;52.472;13.344;2022-10-31T01:05:22;20.40;;;11.70;;
16770;SDS011;8503;52.472;13.344;2022-10-31T01:06:45;24.58;;;11.32;;
16770;SDS011;8503;52.472;13.344;2022-10-31T01:08:08;21.98;;;12.23;;
16770;SDS011;8503;52.472;13.344;2022-10-31T01:09:32;20.05;;;11.88;;
16770;SDS011;8503;52.472;13.344;2022-10-31T01:10:59;18.92;;;10.70;;
16770;SDS011;8503;52.472;13.344;2022-10-31T01:12:23;19.02;;;11.55;;
16770;SDS011;8503;52.472;13.344;2022-10-31T01:13:46;19.83;;;10.82;;
16770;SDS011;8503;52.472;13.344;2022-10-31T01:15:12;20.42;;;11.30;;
16770;SDS011;8503;52.472;13.344;2022-10-31T01:16:36;19.52;;;11.32;;
16770;SDS011;8503;52.472;13.344;2022-10-31T01:18:00;24.58;;;12.02;;
16770;SDS011;8503;52.472;13.344;2022-10-31T01:19:23;17.73;;;10.93;;
16770;SDS011;8503;52.472;13.344;2022-10-31T01:20:46;20.80;;;10.35;;
16770;SDS011;8503;52.472;13.344;2022-10-31T01:22:08;21.85;;;11.60;;
16770;SDS011;8503;52.472;13.344;2022-10-31T01:23:32;22.48;;;10.65;;
16770;SDS011;8503;52.472;13.344;2022-10-31T01:24:56;20.42;;;11.93;;
16770;SDS011;8503;52.472;13.344;2022-10-31T01:26:20;29.60;;;11.90;;
16770;SDS011;8503;52.472;13.344;2022-10-31T01:27:43;17.65;;;11.07;;
16770;SDS011;8503;52.472;13.344;2022-10-31T01:29:07;23.85;;;10.38;;
16770;SDS011;8503;52.472;13.344;2022-10-31T01:30:31;17.55;;;10.77;;
16770;SDS011;8503;52.472;13.344;2022-10-31T01:31:53;17.70;;;11.40;;
16770;SDS011;8503;52.472;13.344;2022-10-31T01:33:17;18.10;;;11.27;;
16770;SDS011;8503;52.472;13.344;2022-10-31T01:34:39;20.67;;;11.07;;
16770;SDS011;8503;52.472;13.344;2022-10-31T01:36:10;21.30;;;11.45;;
16770;SDS011;8503;52.472;13.344;2022-10-31T01:37:37;17.67;;;11.25;;
16770;SDS011;8503;52.472;13.344;2022-10-31T01:39:03;24.92;;;11.07;;
16770;SDS011;8503;52.472;13.344;2022-10-31T01:40:30;21.00;;;11.23;;
16770;SDS011;8503;52.472;13.344;2022-10-31T01:41:52;18.30;;;11.48;;
16770;SDS011;8503;52.472;13.344;2022-10-31T01:43:16;18.33;;;10.90;;
16770;SDS011;8503;52.472;13.344;2022-10-31T01:44:49;19.77;;;11.43;;
16770;SDS011;8503;52.472;13.344;2022-10-31T01:46:19;19.02;;;10.60;;
16770;SDS011;8503;52.472;13.344;2022-10-31T01:47:44;17.67;;;10.75;;
16770;SDS011;8503;52.472;13.344;2022-10-31T01:49:08;22.02;;;10.30;;
16770;SDS011;8503;52.472;13.344;2022-10-31T01:50:34;18.20;;;11.40;;
16770;SDS011;8503;52.472;13.344;2022-10-31T01:52:00;21.27;;;11.45;;
16770;SDS011;8503;52.472;13.344;2022-10-31T01:53:24;24.90;;;11.20;;
16770;SDS011;8503;52.472;13.344;2022-10-31T01:54:48;15.07;;;10.07;;
16770;SDS011;8503;52.472;13.344;2022-10-31T01:56:14;22.50;;;10.32;;
16770;SDS011;8503;52.472;13.344;2022-10-31T01:57:40;20.17;;;10.75;;
16770;SDS011;8503;52.472;13.344;2022-10-31T01:59:05;18.77;;;11.25;;
16770;SDS011;8503;52.472;13.344;2022-10-31T02:00:31;17.83;;;10.93;;
16770;SDS011;8503;52.472;13.344;2022-10-31T02:01:54;23.48;;;12.15;;
16770;SDS011;8503;52.472;13.344;2022-10-31T02:03:18;18.92;;;11.13;;
16770;SDS011;8503;52.472;13.344;2022-10-31T02:04:43;20.90;;;9.52;;
16770;SDS011;8503;52.472;13.344;2022-10-31T02:06:07;18.80;;;11.50;;
16770;SDS011;8503;52.472;13.344;2022-10-31T02:07:36;18.23;;;10.50;;
16770;SDS011;8503;52.472;13.344;2022-10-31T02:09:02;23.27;;;10.43;;
16770;SDS011;8503;52.472;13.344;2022-10-31T02:10:26;17.73;;;10.63;;
16770;SDS011;8503;52.472;13.344;2022-10-31T02:11:51;21.55;;;11.40;;
16770;SDS011;8503;52.472;13.344;2022-10-31T02:13:15;20.23;;;10.30;;
16770;SDS011;8503;52.472;13.344;2022-10-31T02:14:38;21.73;;;10.70;;
16770;SDS011;8503;52.472;13.344;2022-10-31T02:16:02;17.45;;;10.20;;
16770;SDS011;8503;52.472;13.344;2022-10-31T02:17:25;19.13;;;10.50;;
16770;SDS011;8503;52.472;13.344;2022-10-31T02:18:48;20.77;;;10.55;;
16770;SDS011;8503;52.472;13.344;2022-10-31T02:20:13;17.55;;;10.30;;
16770;SDS011;8503;52.472;13.344;2022-10-31T02:21:39;22.63;;;9.80;;
16770;SDS011;8503;52.472;13.344;2022-10-31T02:24:58;15.02;;;10.15;;
16770;SDS011;8503;52.472;13.344;2022-10-31T02:28:21;19.95;;;11.50;;
16770;SDS011;8503;52.472;13.344;2022-10-31T02:30:09;16.55;;;10.27;;
16770;SDS011;8503;52.472;13.344;2022-10-31T02:31:37;16.60;;;10.77;;
16770;SDS011;8503;52.472;13.344;2022-10-31T02:33:17;23.65;;;10.48;;
16770;SDS011;8503;52.472;13.344;2022-10-31T02:34:48;20.08;;;10.65;;
16770;SDS011;8503;52.472;13.344;2022-10-31T02:36:15;16.77;;;10.00;;
16770;SDS011;8503;52.472;13.344;2022-10-31T02:37:43;20.90;;;11.68;;
16770;SDS011;8503;52.472;13.344;2022-10-31T02:39:11;25.48;;;11.50;;
16770;SDS011;8503;52.472;13.344;2022-10-31T02:40:39;21.38;;;10.63;;
16770;SDS011;8503;52.472;13.344;2022-10-31T02:42:07;19.23;;;10.98;;
16770;SDS011;8503;52.472;13.344;2022-10-31T02:43:32;18.58;;;10.00;;
16770;SDS011;8503;52.472;13.344;2022-10-31T02:44:59;25.65;;;10.13;;
16770;SDS011;8503;52.472;13.344;2022-10-31T02:46:27;19.20;;;9.43;;
16770;SDS011;8503;52.472;13.344;2022-10-31T02:47:55;22.90;;;10.25;;
16770;SDS011;8503;52.472;13.344;2022-10-31T02:49:22;17.08;;;10.05;;
16770;SDS011;8503;52.472;13.344;2022-10-31T02:50:48;22.60;;;10.55;;
16770;SDS011;8503;52.472;13.344;2022-10-31T02:52:17;17.48;;;10.65;;
16770;SDS011;8503;52.472;13.344;2022-10-31T02:53:40;18.90;;;10.30;;
16770;SDS011;8503;52.472;13.344;2022-10-31T02:55:10;22.10;;;11.20;;
16770;SDS011;8503;52.472;13.344;2022-10-31T02:56:34;18.58;;;9.93;;
16770;SDS011;8503;52.472;13.344;2022-10-31T02:57:58;19.98;;;10.93;;
16770;SDS011;8503;52.472;13.344;2022-10-31T02:59:24;26.98;;;10.65;;
16770;SDS011;8503;52.472;13.344;2022-10-31T03:00:56;24.40;;;10.40;;
16770;SDS011;8503;52.472;13.344;2022-10-31T03:02:41;18.15;;;10.13;;
16770;SDS011;8503;52.472;13.344;2022-10-31T03:04:18;16.77;;;10.55;;
16770;SDS011;8503;52.472;13.344;2022-10-31T03:05:55;21.15;;;10.98;;
16770;SDS011;8503;52.472;13.344;2022-10-31T03:07:23;21.98;;;10.52;;
16770;SDS011;8503;52.472;13.344;2022-10-31T03:08:54;17.83;;;9.65;;
16770;SDS011;8503;52.472;13.344;2022-10-31T03:10:22;16.40;;;10.60;;
16770;SDS011;8503;52.472;13.344;2022-10-31T03:11:52;17.40;;;9.65;;
16770;SDS011;8503;52.472;13.344;2022-10-31T03:13:20;17.55;;;9.60;;
16770;SDS011;8503;52.472;13.344;2022-10-31T03:14:47;22.80;;;10.82;;
16770;SDS011;8503;52.472;13.344;2022-10-31T03:16:16;24.90;;;10.02;;
16770;SDS011;8503;52.472;13.344;2022-10-31T03:17:46;17.83;;;9.65;;
16770;SDS011;8503;52.472;13.344;2022-10-31T03:19:13;20.65;;;10.40;;
16770;SDS011;8503;52.472;13.344;2022-10-31T03:20:40;21.73;;;10.73;;
16770;SDS011;8503;52.472;13.344;2022-10-31T03:22:06;16.08;;;9.75;;
16770;SDS011;8503;52.472;13.344;2022-10-31T03:23:31;18.85;;;10.27;;
16770;SDS011;8503;52.472;13.344;2022-10-31T03:24:55;16.80;;;10.32;;
16770;SDS011;8503;52.472;13.344;2022-10-31T03:26:20;24.80;;;11.55;;
16770;SDS011;8503;52.472;13.344;2022-10-31T03:27:44;17.58;;;10.43;;
16770;SDS011;8503;52.472;13.344;2022-10-31T03:29:07;17.40;;;9.70;;
16770;SDS011;8503;52.472;13.344;2022-10-31T03:30:33;17.35;;;9.48;;
16770;SDS011;8503;52.472;13.344;2022-10-31T03:32:00;17.77;;;9.70;;
16770;SDS011;8503;52.472;13.344;2022-10-31T03:33:26;22.15;;;9.57;;
16770;SDS011;8503;52.472;13.344;2022-10-31T03:34:51;23.63;;;10.63;;
16770;SDS011;8503;52.472;13.344;2022-10-31T03:36:18;19.45;;;10.15;;
16770;SDS011;8503;52.472;13.344;2022-10-31T03:37:42;24.77;;;10.23;;
16770;SDS011;8503;52.472;13.344;2022-10-31T03:39:05;19.45;;;10.68;;
16770;SDS011;8503;52.472;13.344;2022-10-31T03:40:31;24.17;;;9.32;;
16770;SDS011;8503;52.472;13.344;2022-10-31T03:41:56;19.30;;;10.15;;
16770;SDS011;8503;52.472;13.344;2022-10-31T03:43:22;17.15;;;10.43;;
16770;SDS011;8503;52.472;13.344;2022-10-31T03:44:49;22.65;;;10.48;;
16770;SDS011;8503;52.472;13.344;2022-10-31T03:46:15;21.50;;;10.80;;
16770;SDS011;8503;52.472;13.344;2022-10-31T03:47:38;19.85;;;9.68;;
16770;SDS011;8503;52.472;13.344;2022-10-31T03:49:01;17.95;;;10.63;;
16770;SDS011;8503;52.472;13.344;2022-10-31T03:50:25;21.10;;;10.88;;
16770;SDS011;8503;52.472;13.344;2022-10-31T03:51:56;25.60;;;9.80;;
16770;SDS011;8503;52.472;13.344;2022-10-31T03:53:24;22.30;;;9.40;;
16770;SDS011;8503;52.472;13.344;2022-10-31T03:54:49;20.27;;;9.80;;
16770;SDS011;8503;52.472;13.344;2022-10-31T03:56:16;18.80;;;10.25;;
16770;SDS011;8503;52.472;13.344;2022-10-31T03:57:43;17.52;;;10.30;;
16770;SDS011;8503;52.472;13.344;2022-10-31T03:59:12;19.17;;;10.48;;
16770;SDS011;8503;52.472;13.344;2022-10-31T04:00:36;17.75;;;9.80;;
16770;SDS011;8503;52.472;13.344;2022-10-31T04:02:04;16.77;;;10.25;;
16770;SDS011;8503;52.472;13.344;2022-10-31T04:03:28;19.65;;;10.40;;
16770;SDS011;8503;52.472;13.344;2022-10-31T04:04:54;23.02;;;9.30;;
16770;SDS011;8503;52.472;13.344;2022-10-31T04:06:18;15.27;;;9.93;;
16770;SDS011;8503;52.472;13.344;2022-10-31T04:07:43;25.38;;;10.43;;
16770;SDS011;8503;52.472;13.344;2022-10-31T04:09:09;19.00;;;9.68;;
16770;SDS011;8503;52.472;13.344;2022-10-31T04:10:31;18.50;;;10.38;;
16770;SDS011;8503;52.472;13.344;2022-10-31T04:11:56;23.60;;;11.05;;
16770;SDS011;8503;52.472;13.344;2022-10-31T04:13:21;16.27;;;9.77;;
16770;SDS011;8503;52.472;13.344;2022-10-31T04:14:47;19.17;;;9.70;;
16770;SDS011;8503;52.472;13.344;2022-10-31T04:16:10;18.15;;;9.15;;
16770;SDS011;8503;52.472;13.344;2022-10-31T04:17:38;16.23;;;9.70;;
16770;SDS011;8503;52.472;13.344;2022-10-31T04:19:01;23.15;;;9.75;;
16770;SDS011;8503;52.472;13.344;2022-10-31T04:20:32;21.98;;;10.38;;
16770;SDS011;8503;52.472;13.344;2022-10-31T04:21:55;19.17;;;9.52;;
16770;SDS011;8503;52.472;13.344;2022-10-31T04:23:20;21.58;;;10.23;;
16770;SDS011;8503;52.472;13.344;2022-10-31T04:24:44;16.20;;;8.35;;
16770;SDS011;8503;52.472;13.344;2022-10-31T04:26:08;18.45;;;9.77;;
16770;SDS011;8503;52.472;13.344;2022-10-31T04:27:33;20.08;;;10.15;;
16770;SDS011;8503;52.472;13.344;2022-10-31T04:28:57;17.10;;;10.30;;
16770;SDS011;8503;52.472;13.344;2022-10-31T04:30:20;18.88;;;9.63;;
16770;SDS011;8503;52.472;13.344;2022-10-31T04:31:43;16.80;;;9.75;;
16770;SDS011;8503;52.472;13.344;2022-10-31T04:33:06;28.23;;;9.45;;
16770;SDS011;8503;52.472;13.344;2022-10-31T04:34:29;24.95;;;9.93;;
16770;SDS011;8503;52.472;13.344;2022-10-31T04:35:52;20.92;;;9.30;;
16770;SDS011;8503;52.472;13.344;2022-10-31T04:37:14;20.67;;;10.35;;
16770;SDS011;8503;52.472;13.344;2022-10-31T04:38:39;14.88;;;9.65;;
16770;SDS011;8503;52.472;13.344;2022-10-31T04:40:02;23.42;;;10.18;;
16770;SDS011;8503;52.472;13.344;2022-10-31T04:41:26;18.60;;;10.82;;
16770;SDS011;8503;52.472;13.344;2022-10-31T04:42:49;21.98;;;9.40;;
16770;SDS011;8503;52.472;13.344;2022-10-31T04:44:12;16.23;;;9.93;;
16770;SDS011;8503;52.472;13.344;2022-10-31T04:45:36;19.48;;;9.88;;
16770;SDS011;8503;52.472;13.344;2022-10-31T04:46:59;22.80;;;10.63;;
16770;SDS011;8503;52.472;13.344;2022-10-31T04:48:22;23.20;;;10.60;;
16770;SDS011;8503;52.472;13.344;2022-10-31T04:49:45;30.10;;;10.30;;
16770;SDS011;8503;52.472;13.344;2022-10-31T04:51:09;21.77;;;10.25;;
16770;SDS011;8503;52.472;13.344;2022-10-31T04:52:31;20.98;;;10.43;;
16770;SDS011;8503;52.472;13.344;2022-10-31T04:53:58;19.13;;;10.35;;
16770;SDS011;8503;52.472;13.344;2022-10-31T04:55:20;18.13;;;10.15;;
16770;SDS011;8503;52.472;13.344;2022-10-31T04:56:44;20.20;;;10.05;;
16770;SDS011;8503;52.472;13.344;2022-10-31T04:58:06;24.38;;;10.88;;
16770;SDS011;8503;52.472;13.344;2022-10-31T04:59:30;20.10;;;9.98;;
16770;SDS011;8503;52.472;13.344;2022-10-31T05:00:53;23.00;;;10.05;;
16770;SDS011;8503;52.472;13.344;2022-10-31T05:02:17;15.80;;;9.85;;
16770;SDS011;8503;52.472;13.344;2022-10-31T05:03:41;29.80;;;10.55;;
16770;SDS011;8503;52.472;13.344;2022-10-31T05:05:04;19.52;;;10.32;;
16770;SDS011;8503;52.472;13.344;2022-10-31T05:06:27;20.00;;;10.07;;
16770;SDS011;8503;52.472;13.344;2022-10-31T05:07:51;19.27;;;10.13;;
16770;SDS011;8503;52.472;13.344;2022-10-31T05:09:15;21.40;;;9.60;;
16770;SDS011;8503;52.472;13.344;2022-10-31T05:10:39;17.20;;;10.18;;
16770;SDS011;8503;52.472;13.344;2022-10-31T05:12:02;16.40;;;10.57;;
16770;SDS011;8503;52.472;13.344;2022-10-31T05:13:25;22.33;;;10.27;;
16770;SDS011;8503;52.472;13.344;2022-10-31T05:14:48;25.30;;;10.95;;
16770;SDS011;8503;52.472;13.344;2022-10-31T05:16:11;21.48;;;10.52;;
16770;SDS011;8503;52.472;13.344;2022-10-31T05:17:35;19.48;;;9.80;;
16770;SDS011;8503;52.472;13.344;2022-10-31T05:18:57;21.27;;;9.85;;
16770;SDS011;8503;52.472;13.344;2022-10-31T05:20:21;19.50;;;10.80;;
16770;SDS011;8503;52.472;13.344;2022-10-31T05:21:46;19.27;;;9.50;;
16770;SDS011;8503;52.472;13.344;2022-10-31T05:23:09;24.50;;;9.82;;
16770;SDS011;8503;52.472;13.344;2022-10-31T05:24:34;29.08;;;10.55;;
16770;SDS011;8503;52.472;13.344;2022-10-31T05:25:57;19.15;;;10.25;;
16770;SDS011;8503;52.472;13.344;2022-10-31T05:27:20;18.27;;;10.07;;
16770;SDS011;8503;52.472;13.344;2022-10-31T05:28:44;21.40;;;10.05;;
16770;SDS011;8503;52.472;13.344;2022-10-31T05:30:07;20.33;;;10.15;;
16770;SDS011;8503;52.472;13.344;2022-10-31T05:31:31;24.25;;;9.90;;
16770;SDS011;8503;52.472;13.344;2022-10-31T05:32:54;20.77;;;10.85;;
16770;SDS011;8503;52.472;13.344;2022-10-31T05:34:18;21.38;;;10.40;;
16770;SDS011;8503;52.472;13.344;2022-10-31T05:35:41;21.00;;;9.82;;
16770;SDS011;8503;52.472;13.344;2022-10-31T05:37:04;15.00;;;9.38;;
16770;SDS011;8503;52.472;13.344;2022-10-31T05:38:27;20.50;;;10.70;;
16770;SDS011;8503;52.472;13.344;2022-10-31T05:39:51;22.50;;;10.32;;
16770;SDS011;8503;52.472;13.344;2022-10-31T05:41:15;19.52;;;9.85;;
16770;SDS011;8503;52.472;13.344;2022-10-31T05:42:37;20.70;;;10.60;;
16770;SDS011;8503;52.472;13.344;2022-10-31T05:44:01;18.08;;;9.68;;
16770;SDS011;8503;52.472;13.344;2022-10-31T05:45:24;26.13;;;9.80;;
16770;SDS011;8503;52.472;13.344;2022-10-31T05:46:47;23.63;;;9.68;;
16770;SDS011;8503;52.472;13.344;2022-10-31T05:48:10;29.17;;;10.73;;
16770;SDS011;8503;52.472;13.344;2022-10-31T05:49:34;21.00;;;10.00;;
16770;SDS011;8503;52.472;13.344;2022-10-31T05:50:56;16.13;;;8.70;;
16770;SDS011;8503;52.472;13.344;2022-10-31T05:52:20;18.52;;;9.75;;
16770;SDS011;8503;52.472;13.344;2022-10-31T05:53:42;15.88;;;10.38;;
16770;SDS011;8503;52.472;13.344;2022-10-31T05:55:07;23.40;;;9.40;;
16770;SDS011;8503;52.472;13.344;2022-10-31T05:56:30;19.02;;;9.82;;
16770;SDS011;8503;52.472;13.344;2022-10-31T05:57:53;17.75;;;9.35;;
16770;SDS011;8503;52.472;13.344;2022-10-31T05:59:17;19.40;;;9.55;;
16770;SDS011;8503;52.472;13.344;2022-10-31T06:00:40;17.83;;;9.30;;
16770;SDS011;8503;52.472;13.344;2022-10-31T06:02:03;19.30;;;9.98;;
16770;SDS011;8503;52.472;13.344;2022-10-31T06:03:27;15.00;;;8.27;;
16770;SDS011;8503;52.472;13.344;2022-10-31T06:04:50;23.27;;;9.65;;
16770;SDS011;8503;52.472;13.344;2022-10-31T06:06:15;17.88;;;9.00;;
16770;SDS011;8503;52.472;13.344;2022-10-31T06:07:39;17.58;;;9.80;;
16770;SDS011;8503;52.472;13.344;2022-10-31T06:09:02;18.55;;;9.73;;
16770;SDS011;8503;52.472;13.344;2022-10-31T06:10:27;19.02;;;9.25;;
16770;SDS011;8503;52.472;13.344;2022-10-31T06:11:52;24.50;;;10.32;;
16770;SDS011;8503;52.472;13.344;2022-10-31T06:13:15;25.17;;;9.20;;
16770;SDS011;8503;52.472;13.344;2022-10-31T06:14:41;21.33;;;9.85;;
16770;SDS011;8503;52.472;13.344;2022-10-31T06:16:04;25.88;;;9.60;;
16770;SDS011;8503;52.472;13.344;2022-10-31T06:17:28;19.58;;;9.13;;
16770;SDS011;8503;52.472;13.344;2022-10-31T06:18:51;20.55;;;8.75;;
16770;SDS011;8503;52.472;13.344;2022-10-31T06:20:16;21.42;;;9.65;;
16770;SDS011;8503;52.472;13.344;2022-10-31T06:21:40;22.98;;;10.05;;
16770;SDS011;8503;52.472;13.344;2022-10-31T06:23:02;19.08;;;9.23;;
16770;SDS011;8503;52.472;13.344;2022-10-31T06:24:27;19.55;;;10.15;;
16770;SDS011;8503;52.472;13.344;2022-10-31T06:25:52;17.17;;;9.35;;
16770;SDS011;8503;52.472;13.344;2022-10-31T06:27:16;23.98;;;10.40;;
16770;SDS011;8503;52.472;13.344;2022-10-31T06:28:38;26.58;;;10.63;;
16770;SDS011;8503;52.472;13.344;2022-10-31T06:30:02;22.80;;;10.02;;
16770;SDS011;8503;52.472;13.344;2022-10-31T06:31:25;27.77;;;9.60;;
16770;SDS011;8503;52.472;13.344;2022-10-31T06:32:48;26.63;;;10.75;;
16770;SDS011;8503;52.472;13.344;2022-10-31T06:34:12;24.52;;;10.35;;
16770;SDS011;8503;52.472;13.344;2022-10-31T06:35:34;19.27;;;9.43;;
16770;SDS011;8503;52.472;13.344;2022-10-31T06:36:58;22.45;;;9.50;;
16770;SDS011;8503;52.472;13.344;2022-10-31T06:38:22;21.63;;;9.90;;
16770;SDS011;8503;52.472;13.344;2022-10-31T06:39:44;18.42;;;8.93;;
16770;SDS011;8503;52.472;13.344;2022-10-31T06:41:09;17.67;;;8.90;;
16770;SDS011;8503;52.472;13.344;2022-10-31T06:42:32;30.33;;;10.65;;
16770;SDS011;8503;52.472;13.344;2022-10-31T06:43:56;21.58;;;9.27;;
16770;SDS011;8503;52.472;13.344;2022-10-31T06:45:25;19.20;;;8.85;;
16770;SDS011;8503;52.472;13.344;2022-10-31T06:46:48;16.00;;;8.98;;
16770;SDS011;8503;52.472;13.344;2022-10-31T06:48:11;19.65;;;9.15;;
16770;SDS011;8503;52.472;13.344;2022-10-31T06:49:38;21.77;;;8.98;;
16770;SDS011;8503;52.472;13.344;2022-10-31T06:51:02;15.05;;;8.05;;
16770;SDS011;8503;52.472;13.344;2022-10-31T06:52:25;16.30;;;9.00;;
16770;SDS011;8503;52.472;13.344;2022-10-31T06:53:48;19.05;;;8.05;;
16770;SDS011;8503;52.472;13.344;2022-10-31T06:55:10;19.15;;;8.98;;
16770;SDS011;8503;52.472;13.344;2022-10-31T06:56:35;15.68;;;8.77;;
16770;SDS011;8503;52.472;13.344;2022-10-31T06:57:59;21.10;;;8.15;;
16770;SDS011;8503;52.472;13.344;2022-10-31T06:59:23;22.52;;;7.95;;
16770;SDS011;8503;52.472;13.344;2022-10-31T07:00:47;16.52;;;8.10;;
16770;SDS011;8503;52.472;13.344;2022-10-31T07:02:09;23.85;;;8.43;;
16770;SDS011;8503;52.472;13.344;2022-10-31T07:03:33;18.10;;;7.97;;
16770;SDS011;8503;52.472;13.344;2022-10-31T07:04:57;15.75;;;8.40;;
16770;SDS011;8503;52.472;13.344;2022-10-31T07:06:20;18.77;;;8.18;;
16770;SDS011;8503;52.472;13.344;2022-10-31T07:07:43;15.10;;;8.02;;
16770;SDS011;8503;52.472;13.344;2022-10-31T07:09:07;14.95;;;7.28;;
16770;SDS011;8503;52.472;13.344;2022-10-31T07:10:31;13.27;;;7.15;;
16770;SDS011;8503;52.472;13.344;2022-10-31T07:12:02;13.20;;;7.10;;
16770;SDS011;8503;52.472;13.344;2022-10-31T07:13:25;14.15;;;7.18;;
16770;SDS011;8503;52.472;13.344;2022-10-31T07:14:48;18.85;;;7.25;;
16770;SDS011;8503;52.472;13.344;2022-10-31T07:16:11;12.38;;;7.53;;
16770;SDS011;8503;52.472;13.344;2022-10-31T07:17:35;12.73;;;7.35;;
16770;SDS011;8503;52.472;13.344;2022-10-31T07:18:58;11.98;;;6.40;;
16770;SDS011;8503;52.472;13.344;2022-10-31T07:20:21;10.57;;;5.95;;
16770;SDS011;8503;52.472;13.344;2022-10-31T07:21:44;14.55;;;6.63;;
16770;SDS011;8503;52.472;13.344;2022-10-31T07:23:07;10.77;;;6.45;;
16770;SDS011;8503;52.472;13.344;2022-10-31T07:24:31;10.20;;;6.63;;
16770;SDS011;8503;52.472;13.344;2022-10-31T07:25:55;13.38;;;6.68;;
16770;SDS011;8503;52.472;13.344;2022-10-31T07:27:20;15.52;;;6.43;;
16770;SDS011;8503;52.472;13.344;2022-10-31T07:28:45;10.43;;;6.45;;
16770;SDS011;8503;52.472;13.344;2022-10-31T07:30:09;14.95;;;7.70;;
16770;SDS011;8503;52.472;13.344;2022-10-31T07:31:33;17.17;;;7.03;;
16770;SDS011;8503;52.472;13.344;2022-10-31T07:32:56;17.48;;;7.43;;
16770;SDS011;8503;52.472;13.344;2022-10-31T07:34:19;14.98;;;7.28;;
16770;SDS011;8503;52.472;13.344;2022-10-31T07:35:43;15.20;;;6.68;;
16770;SDS011;8503;52.472;13.344;2022-10-31T07:37:06;12.93;;;7.00;;
16770;SDS011;8503;52.472;13.344;2022-10-31T07:38:28;14.90;;;7.00;;
16770;SDS011;8503;52.472;13.344;2022-10-31T07:39:52;16.42;;;6.47;;
16770;SDS011;8503;52.472;13.344;2022-10-31T07:41:15;18.90;;;7.28;;
16770;SDS011;8503;52.472;13.344;2022-10-31T07:42:40;11.70;;;6.88;;
16770;SDS011;8503;52.472;13.344;2022-10-31T07:44:04;18.30;;;7.20;;
16770;SDS011;8503;52.472;13.344;2022-10-31T07:45:28;16.88;;;7.72;;
16770;SDS011;8503;52.472;13.344;2022-10-31T07:46:50;17.75;;;7.88;;
16770;SDS011;8503;52.472;13.344;2022-10-31T07:48:13;16.98;;;7.22;;
16770;SDS011;8503;52.472;13.344;2022-10-31T07:49:37;13.65;;;6.90;;
16770;SDS011;8503;52.472;13.344;2022-10-31T07:50:59;10.73;;;6.88;;
16770;SDS011;8503;52.472;13.344;2022-10-31T07:52:24;19.70;;;7.63;;
16770;SDS011;8503;52.472;13.344;2022-10-31T07:53:47;13.95;;;7.70;;
16770;SDS011;8503;52.472;13.344;2022-10-31T07:55:11;15.20;;;7.65;;
16770;SDS011;8503;52.472;13.344;2022-10-31T07:56:34;21.38;;;8.10;;
16770;SDS011;8503;52.472;13.344;2022-10-31T07:58:00;18.45;;;7.68;;
16770;SDS011;8503;52.472;13.344;2022-10-31T07:59:24;12.93;;;7.82;;
16770;SDS011;8503;52.472;13.344;2022-10-31T08:00:48;14.98;;;8.43;;
16770;SDS011;8503;52.472;13.344;2022-10-31T08:02:12;16.45;;;7.90;;
16770;SDS011;8503;52.472;13.344;2022-10-31T08:03:34;16.60;;;8.35;;
16770;SDS011;8503;52.472;13.344;2022-10-31T08:04:57;18.10;;;8.10;;
16770;SDS011;8503;52.472;13.344;2022-10-31T08:06:21;15.48;;;8.15;;
16770;SDS011;8503;52.472;13.344;2022-10-31T08:07:45;17.85;;;8.50;;
16770;SDS011;8503;52.472;13.344;2022-10-31T08:09:07;18.90;;;9.10;;
16770;SDS011;8503;52.472;13.344;2022-10-31T08:10:31;17.10;;;8.45;;
16770;SDS011;8503;52.472;13.344;2022-10-31T08:11:54;22.27;;;10.15;;
16770;SDS011;8503;52.472;13.344;2022-10-31T08:13:19;18.50;;;9.32;;
16770;SDS011;8503;52.472;13.344;2022-10-31T08:14:42;15.20;;;8.90;;
16770;SDS011;8503;52.472;13.344;2022-10-31T08:16:06;16.75;;;8.95;;
16770;SDS011;8503;52.472;13.344;2022-10-31T08:17:29;21.55;;;10.00;;
16770;SDS011;8503;52.472;13.344;2022-10-31T08:18:52;15.13;;;9.07;;
16770;SDS011;8503;52.472;13.344;2022-10-31T08:20:16;20.33;;;9.57;;
16770;SDS011;8503;52.472;13.344;2022-10-31T08:21:40;17.20;;;9.15;;